Terminal Aerodrome Forecast
Issued by NWS

Home | Current Version | Previous Version | Text Only | Print | Product List | Glossary On
Versions: 1 2 3 4 5 6 7 8 9 10 11 12 13 14 15 16 17 18 19 20 21 22
000
FTUS43 KMQT 260524
TAFSAW
TAF
KSAW 260524Z 2606/2706 10008KT P6SM -SHRA OVC070
     FM260800 17010KT 5SM -SHRA BR OVC003
     FM260900 17010KT 5SM BR OVC003
     FM261100 20008KT 4SM BR OVC003
     FM261500 24007KT P6SM BKN030
     FM261700 23007KT P6SM SCT050
     FM262300 00000KT P6SM SCT110=

USA.gov is the U.S. government's official web portal to all federal, state and local government web resources and services.